Time;durP1;ratioP1;P1;durP2;ratioP2;P2;SDS_P1;SDS_P2;PMS_P1;PMS_P2;Temp;Humidity;BMP_temperature;BMP_pressure;BME280_temperature;BME280_humidity;BME280_pressure;Samples;Min_cycle;Max_cycle;Signal;HPM_P1;HPM_P2
2023/09/30 04:02:08;;;;;;;;;;;17.90;99.90;;;;;;5168178;23;19929;-66
2023/09/30 04:04:34;;;;;;;;;;;17.90;99.90;;;;;;4975262;28;19910;-67
2023/09/30 04:06:59;;;;;;;;;;;18.00;99.90;;;;;;4974841;28;19910;-67
2023/09/30 04:09:25;;;;;;;;;;;17.90;99.90;;;;;;4975874;28;19910;-67
2023/09/30 04:11:50;;;;;;;;;;;17.90;99.90;;;;;;4975391;28;19910;-67
2023/09/30 04:14:17;;;;;;;;;;;17.80;99.90;;;;;;4976182;28;19910;-65
2023/09/30 04:16:42;;;;;;;;;;;17.80;99.90;;;;;;4976179;28;19992;-65
2023/09/30 04:19:10;;;;;;;;;;;17.80;99.90;;;;;;4976252;28;19934;-65
2023/09/30 04:21:38;;;;;;;;;;;17.80;99.90;;;;;;4975276;28;19918;-65
2023/09/30 04:24:04;;;;;;;;;;;17.80;99.90;;;;;;4973472;28;19961;-65
2023/09/30 04:26:30;;;;;;;;;;;17.80;99.90;;;;;;4973667;28;19914;-65
2023/09/30 04:28:55;;;;;;;;;;;17.90;99.90;;;;;;4975981;28;19913;-65
2023/09/30 04:31:23;;;;;;;;;;;17.80;99.90;;;;;;4975025;28;19942;-65
2023/09/30 04:33:51;;;;;;;;;;;17.80;99.90;;;;;;4974900;28;19906;-65
2023/09/30 04:36:16;;;;;;;;;;;17.70;99.90;;;;;;4974641;28;19906;-65
2023/09/30 04:38:43;;;;;;;;;;;17.60;99.90;;;;;;4975424;28;19910;-65
2023/09/30 04:41:08;;;;;;;;;;;17.50;99.90;;;;;;4974996;28;19960;-65
2023/09/30 04:43:34;;;;;;;;;;;17.50;99.90;;;;;;4973744;28;19906;-65
2023/09/30 04:46:01;;;;;;;;;;;17.40;99.90;;;;;;4974466;28;20316;-65
2023/09/30 04:48:26;;;;;;;;;;;17.40;99.90;;;;;;4973633;28;19989;-65
2023/09/30 04:50:52;;;;;;;;;;;17.40;99.90;;;;;;4975212;28;20308;-65
2023/09/30 04:53:18;;;;;;;;;;;17.40;99.90;;;;;;4975953;28;19928;-65
2023/09/30 04:55:44;;;;;;;;;;;17.30;99.90;;;;;;4975166;28;19906;-65
2023/09/30 04:58:10;;;;;;;;;;;17.30;99.90;;;;;;4975747;28;19949;-65
2023/09/30 05:00:35;;;;;;;;;;;17.30;99.90;;;;;;4975064;28;19918;-65
2023/09/30 05:03:01;;;;;;;;;;;17.20;99.90;;;;;;4955717;29;19960;-64
2023/09/30 05:05:26;;;;;;;;;;;17.10;99.90;;;;;;4956279;29;19907;-64
2023/09/30 05:07:52;;;;;;;;;;;17.10;99.90;;;;;;4972217;28;20281;-64
2023/09/30 05:10:17;;;;;;;;;;;17.00;99.90;;;;;;4975052;28;19906;-64
2023/09/30 05:12:46;;;;;;;;;;;16.90;99.90;;;;;;4975091;28;19907;-64
2023/09/30 05:15:13;;;;;;;;;;;16.90;99.90;;;;;;4974504;28;19906;-64
2023/09/30 05:17:38;;;;;;;;;;;16.90;99.90;;;;;;4974134;28;20071;-65
2023/09/30 05:20:06;;;;;;;;;;;16.90;99.90;;;;;;4977074;28;20392;-65
2023/09/30 05:22:33;;;;;;;;;;;16.80;99.90;;;;;;4977570;28;19910;-64
2023/09/30 05:24:58;;;;;;;;;;;16.90;99.90;;;;;;4978010;28;19968;-64
2023/09/30 05:27:24;;;;;;;;;;;16.70;99.90;;;;;;4978157;28;19906;-64
2023/09/30 05:29:49;;;;;;;;;;;16.70;99.90;;;;;;4978052;28;20428;-64
2023/09/30 05:32:15;;;;;;;;;;;16.70;99.90;;;;;;4976029;28;19910;-65
2023/09/30 05:34:40;;;;;;;;;;;16.60;99.90;;;;;;4977616;28;19992;-64
2023/09/30 05:37:05;;;;;;;;;;;16.60;99.90;;;;;;4977837;28;19957;-64
2023/09/30 05:39:31;;;;;;;;;;;16.50;99.90;;;;;;4977740;28;19906;-64
2023/09/30 05:41:57;;;;;;;;;;;16.50;99.90;;;;;;4977531;28;19910;-64
2023/09/30 05:44:23;;;;;;;;;;;16.50;99.90;;;;;;4977247;28;19916;-64
2023/09/30 05:46:48;;;;;;;;;;;16.60;99.90;;;;;;4977254;28;19906;-64
2023/09/30 05:49:14;;;;;;;;;;;16.50;99.90;;;;;;4976204;28;20014;-64
2023/09/30 05:51:40;;;;;;;;;;;16.60;99.90;;;;;;4977226;28;19914;-64
2023/09/30 05:54:07;;;;;;;;;;;16.60;99.90;;;;;;4972691;28;20576;-65
2023/09/30 05:56:33;;;;;;;;;;;16.60;99.90;;;;;;4966505;28;19917;-65
2023/09/30 05:58:58;;;;;;;;;;;16.60;99.90;;;;;;4974999;28;19906;-64
2023/09/30 06:01:23;;;;;;;;;;;16.60;99.90;;;;;;4965871;28;19972;-65
2023/09/30 06:03:49;;;;;;;;;;;16.60;99.90;;;;;;4967101;28;19913;-65
2023/09/30 06:06:15;;;;;;;;;;;16.60;99.90;;;;;;4972156;28;20001;-65
2023/09/30 06:08:43;;;;;;;;;;;16.60;99.90;;;;;;4970971;28;19910;-64
2023/09/30 06:11:15;;;;;;;;;;;16.60;99.90;;;;;;4975551;28;20296;-64
2023/09/30 06:13:41;;;;;;;;;;;16.60;99.90;;;;;;4976819;28;20380;-64
2023/09/30 06:16:06;;;;;;;;;;;16.60;99.90;;;;;;4976383;28;19964;-64
2023/09/30 06:18:31;;;;;;;;;;;16.60;99.90;;;;;;4976946;28;19906;-64
2023/09/30 06:20:57;;;;;;;;;;;16.60;99.90;;;;;;4976716;28;19926;-64
2023/09/30 06:23:23;;;;;;;;;;;16.60;99.90;;;;;;4977052;28;19910;-64
2023/09/30 06:25:48;;;;;;;;;;;16.60;99.90;;;;;;4976961;28;19913;-64
2023/09/30 06:28:14;;;;;;;;;;;16.60;99.90;;;;;;4977013;28;19910;-64
2023/09/30 06:30:41;;;;;;;;;;;16.70;99.90;;;;;;4974726;28;19914;-64
2023/09/30 06:33:07;;;;;;;;;;;16.90;99.90;;;;;;4976533;28;19906;-64
2023/09/30 06:35:39;;;;;;;;;;;17.00;99.90;;;;;;4975418;28;19912;-64
2023/09/30 06:38:06;;;;;;;;;;;17.20;99.90;;;;;;4975379;28;19949;-64
2023/09/30 06:40:32;;;;;;;;;;;17.30;99.90;;;;;;4976979;28;19906;-64
2023/09/30 06:42:57;;;;;;;;;;;17.30;99.90;;;;;;4976670;28;20368;-64
2023/09/30 06:45:24;;;;;;;;;;;17.40;99.90;;;;;;4976869;28;19909;-64
2023/09/30 06:47:49;;;;;;;;;;;17.30;99.90;;;;;;4975966;28;19977;-64
2023/09/30 06:50:18;;;;;;;;;;;17.30;99.90;;;;;;4976607;28;20264;-64
2023/09/30 06:52:49;;;;;;;;;;;17.20;99.90;;;;;;4976152;28;20038;-64
2023/09/30 06:55:14;;;;;;;;;;;17.30;99.90;;;;;;4976181;28;19913;-64
2023/09/30 06:57:43;;;;;;;;;;;17.20;99.90;;;;;;4976194;28;19914;-66
2023/09/30 07:00:09;;;;;;;;;;;17.20;99.90;;;;;;4976597;28;20029;-65
2023/09/30 07:02:36;;;;;;;;;;;17.20;99.90;;;;;;4975715;28;19913;-65
2023/09/30 07:05:02;;;;;;;;;;;17.10;99.90;;;;;;4975234;28;20353;-66
2023/09/30 07:07:28;;;;;;;;;;;17.20;99.90;;;;;;4976622;28;19957;-64
2023/09/30 07:09:53;;;;;;;;;;;17.10;99.90;;;;;;4976113;28;19910;-64
2023/09/30 07:12:20;;;;;;;;;;;17.20;99.90;;;;;;4976856;28;19910;-66
2023/09/30 07:14:46;;;;;;;;;;;17.20;99.90;;;;;;4976572;28;19910;-64
2023/09/30 07:17:11;;;;;;;;;;;17.30;99.90;;;;;;4976078;28;19906;-65
2023/09/30 07:19:37;;;;;;;;;;;17.30;99.90;;;;;;4976135;28;19918;-65
2023/09/30 07:22:02;;;;;;;;;;;17.30;99.90;;;;;;4976418;28;20380;-65
2023/09/30 07:24:28;;;;;;;;;;;17.40;99.90;;;;;;4976670;28;19916;-66
2023/09/30 07:26:53;;;;;;;;;;;17.50;99.90;;;;;;4976816;28;19906;-64
2023/09/30 07:29:19;;;;;;;;;;;17.60;99.90;;;;;;4975180;28;20001;-65
2023/09/30 07:31:44;;;;;;;;;;;17.50;99.90;;;;;;4965587;28;19945;-67
2023/09/30 07:34:10;;;;;;;;;;;17.50;99.90;;;;;;4965669;28;19937;-68
2023/09/30 07:36:35;;;;;;;;;;;17.60;99.90;;;;;;4975988;28;19980;-67
2023/09/30 07:39:01;;;;;;;;;;;17.60;99.90;;;;;;4976858;28;19913;-65
2023/09/30 07:41:27;;;;;;;;;;;17.70;99.90;;;;;;4975635;28;19961;-67
2023/09/30 07:43:52;;;;;;;;;;;17.80;99.90;;;;;;4976168;28;19913;-66
2023/09/30 07:46:18;;;;;;;;;;;17.70;99.90;;;;;;4975596;28;19910;-69
2023/09/30 07:48:43;;;;;;;;;;;17.70;99.90;;;;;;4975909;28;19956;-69
2023/09/30 07:51:12;;;;;;;;;;;17.80;99.90;;;;;;4975573;28;19906;-69
2023/09/30 07:53:40;;;;;;;;;;;17.90;99.90;;;;;;4973909;28;19910;-70
2023/09/30 07:56:05;;;;;;;;;;;18.00;99.90;;;;;;4975095;28;19914;-69
2023/09/30 07:58:31;;;;;;;;;;;18.10;99.90;;;;;;4973629;28;20276;-68
2023/09/30 08:00:56;;;;;;;;;;;18.10;99.90;;;;;;4974851;28;19972;-68
2023/09/30 08:03:22;;;;;;;;;;;18.10;99.90;;;;;;4974601;28;19917;-67
2023/09/30 08:05:47;;;;;;;;;;;18.30;99.90;;;;;;4974695;28;19910;-67
2023/09/30 08:08:14;;;;;;;;;;;18.40;99.90;;;;;;4974745;28;19917;-67
2023/09/30 08:10:39;;;;;;;;;;;18.50;99.90;;;;;;4975116;28;20040;-71
2023/09/30 08:13:05;;;;;;;;;;;18.60;99.90;;;;;;4975157;28;19949;-69
2023/09/30 08:15:30;;;;;;;;;;;18.70;99.90;;;;;;4975425;28;19949;-69
2023/09/30 08:17:56;;;;;;;;;;;18.80;99.90;;;;;;4974174;28;20381;-72
2023/09/30 08:20:21;;;;;;;;;;;18.90;99.90;;;;;;4974028;28;19906;-67
2023/09/30 08:22:47;;;;;;;;;;;19.00;99.90;;;;;;4975116;28;19914;-66
2023/09/30 08:25:13;;;;;;;;;;;19.10;99.90;;;;;;4973044;28;19910;-66
2023/09/30 08:27:38;;;;;;;;;;;19.10;99.90;;;;;;4974852;28;20020;-65
2023/09/30 08:30:05;;;;;;;;;;;19.10;99.90;;;;;;4974764;28;20345;-66
2023/09/30 08:32:34;;;;;;;;;;;19.20;99.90;;;;;;4974573;28;19917;-66
2023/09/30 08:35:00;;;;;;;;;;;19.20;99.90;;;;;;4970839;28;20447;-65
2023/09/30 08:37:26;;;;;;;;;;;19.30;99.90;;;;;;4971986;28;20309;-66
2023/09/30 08:39:51;;;;;;;;;;;19.30;99.90;;;;;;4975064;28;19906;-66
2023/09/30 08:42:18;;;;;;;;;;;19.40;99.90;;;;;;4974861;28;19917;-66
2023/09/30 08:44:44;;;;;;;;;;;19.50;99.90;;;;;;4973175;28;19910;-66
2023/09/30 08:47:09;;;;;;;;;;;19.80;99.90;;;;;;4974598;28;19917;-65
2023/09/30 08:49:41;;;;;;;;;;;19.90;99.90;;;;;;4974597;28;20454;-65
2023/09/30 08:52:09;;;;;;;;;;;20.00;99.90;;;;;;4974630;28;20272;-65
2023/09/30 08:54:34;;;;;;;;;;;20.30;99.90;;;;;;4977724;28;19948;-66
2023/09/30 08:57:00;;;;;;;;;;;21.60;99.90;;;;;;4978795;28;20316;-66
2023/09/30 08:59:26;;;;;;;;;;;23.40;99.90;;;;;;4978530;28;20288;-67
2023/09/30 09:01:52;;;;;;;;;;;24.00;99.90;;;;;;4966258;28;19914;-66
2023/09/30 09:04:17;;;;;;;;;;;24.20;99.80;;;;;;4977372;28;19916;-66
2023/09/30 09:06:43;;;;;;;;;;;23.70;99.90;;;;;;4977461;28;19910;-66
2023/09/30 09:09:12;;;;;;;;;;;23.70;99.90;;;;;;4978936;28;19910;-66
2023/09/30 09:11:38;;;;;;;;;;;23.60;99.90;;;;;;4979500;28;19945;-66
2023/09/30 09:14:04;;;;;;;;;;;23.60;99.90;;;;;;4979927;28;19906;-66
2023/09/30 09:16:30;;;;;;;;;;;23.50;99.90;;;;;;4982260;28;20096;-66
2023/09/30 09:18:56;;;;;;;;;;;23.60;99.90;;;;;;4981289;28;20289;-66
2023/09/30 09:21:27;;;;;;;;;;;24.00;99.30;;;;;;4978288;28;19916;-67
2023/09/30 09:23:53;;;;;;;;;;;24.20;98.90;;;;;;4978409;28;20400;-67
2023/09/30 09:26:26;;;;;;;;;;;24.50;98.50;;;;;;4978414;28;20234;-67
2023/09/30 09:28:58;;;;;;;;;;;24.40;98.00;;;;;;4959046;28;20361;-66
2023/09/30 09:31:35;;;;;;;;;;;23.80;98.80;;;;;;4962482;28;19910;-66
2023/09/30 09:34:01;;;;;;;;;;;23.70;99.30;;;;;;4958548;28;19917;-66
2023/09/30 09:36:43;;;;;;;;;;;23.70;98.50;;;;;;4958320;28;20379;-66
2023/09/30 09:39:10;;;;;;;;;;;23.30;99.30;;;;;;4976247;28;19910;-65
2023/09/30 09:41:51;;;;;;;;;;;23.30;99.00;;;;;;4976721;28;19914;-65
2023/09/30 09:44:17;;;;;;;;;;;23.30;99.30;;;;;;4976904;28;19913;-66
2023/09/30 09:46:43;;;;;;;;;;;23.40;99.20;;;;;;4979073;28;19906;-64
2023/09/30 09:49:10;;;;;;;;;;;23.40;99.10;;;;;;4980451;28;19910;-65
2023/09/30 09:51:36;;;;;;;;;;;23.90;98.60;;;;;;4981739;28;19994;-65
2023/09/30 09:54:03;;;;;;;;;;;24.90;98.00;;;;;;4981071;28;19946;-65
2023/09/30 09:56:28;;;;;;;;;;;25.90;96.70;;;;;;4985194;28;19906;-66
2023/09/30 09:58:54;;;;;;;;;;;26.40;95.80;;;;;;4985561;28;19999;-66
2023/09/30 10:01:21;;;;;;;;;;;26.50;95.30;;;;;;4985185;28;19944;-64
2023/09/30 10:03:47;;;;;;;;;;;26.50;94.90;;;;;;4978257;28;19954;-67
2023/09/30 10:06:14;;;;;;;;;;;25.80;95.40;;;;;;4976324;28;20028;-66
2023/09/30 10:08:42;;;;;;;;;;;25.40;96.00;;;;;;4977232;28;20421;-65
2023/09/30 10:11:09;;;;;;;;;;;24.70;96.40;;;;;;4977899;28;19917;-65
2023/09/30 10:13:50;;;;;;;;;;;23.80;97.60;;;;;;4976128;28;19906;-66
2023/09/30 10:16:34;;;;;;;;;;;23.30;98.20;;;;;;4977087;28;20429;-65
2023/09/30 10:19:25;;;;;;;;;;;23.20;98.60;;;;;;4982936;28;19917;-65
2023/09/30 10:22:09;;;;;;;;;;;23.00;98.90;;;;;;4983853;28;20384;-65
2023/09/30 10:24:34;;;;;;;;;;;22.90;99.10;;;;;;4981412;28;20013;-66
2023/09/30 10:27:19;;;;;;;;;;;22.80;99.50;;;;;;4980715;28;20026;-65
2023/09/30 10:29:44;;;;;;;;;;;22.50;99.50;;;;;;4977540;28;19997;-66
2023/09/30 10:32:10;;;;;;;;;;;22.40;99.70;;;;;;4976448;28;19946;-64
2023/09/30 10:34:35;;;;;;;;;;;22.30;99.90;;;;;;4977300;28;20420;-65
2023/09/30 10:37:19;;;;;;;;;;;23.20;99.60;;;;;;4976894;28;20452;-66
2023/09/30 10:39:58;;;;;;;;;;;24.90;97.10;;;;;;4976958;28;20000;-66
2023/09/30 10:42:42;;;;;;;;;;;25.70;96.10;;;;;;4975713;28;20012;-66
2023/09/30 10:45:08;;;;;;;;;;;26.90;95.00;;;;;;4977154;28;19954;-67
2023/09/30 10:47:37;;;;;;;;;;;28.00;93.60;;;;;;4976176;28;19964;-66
2023/09/30 10:50:04;;;;;;;;;;;27.90;92.80;;;;;;4977171;28;19944;-67
2023/09/30 10:52:30;;;;;;;;;;;27.90;93.10;;;;;;4976479;28;19917;-67
2023/09/30 10:55:01;;;;;;;;;;;29.50;91.60;;;;;;4975423;28;19906;-67
2023/09/30 10:57:29;;;;;;;;;;;29.50;90.50;;;;;;4976485;28;19914;-66
2023/09/30 11:00:08;;;;;;;;;;;28.50;90.70;;;;;;4976502;28;19906;-67
2023/09/30 11:02:34;;;;;;;;;;;27.70;91.30;;;;;;4964254;28;20365;-66
2023/09/30 11:05:08;;;;;;;;;;;26.90;91.90;;;;;;4976265;28;19922;-66
2023/09/30 11:07:33;;;;;;;;;;;26.30;92.20;;;;;;4976186;28;19964;-66
2023/09/30 11:10:00;;;;;;;;;;;25.60;92.80;;;;;;4975919;28;19953;-66
2023/09/30 11:12:26;;;;;;;;;;;25.10;93.80;;;;;;4975866;28;19906;-66
2023/09/30 11:14:58;;;;;;;;;;;24.30;94.60;;;;;;4976028;28;20268;-66
2023/09/30 11:17:24;;;;;;;;;;;23.60;95.90;;;;;;4975516;28;19910;-65
2023/09/30 11:19:49;;;;;;;;;;;23.40;96.20;;;;;;4976963;28;20265;-67
2023/09/30 11:22:15;;;;;;;;;;;23.40;96.30;;;;;;4974572;28;19909;-66
2023/09/30 11:24:41;;;;;;;;;;;23.30;96.30;;;;;;4975693;28;19914;-66
2023/09/30 11:27:07;;;;;;;;;;;23.30;96.40;;;;;;4975693;28;20289;-66
2023/09/30 11:29:32;;;;;;;;;;;23.30;96.70;;;;;;4975919;28;19906;-66
2023/09/30 11:31:58;;;;;;;;;;;23.20;96.40;;;;;;4964078;28;20013;-66
2023/09/30 11:34:36;;;;;;;;;;;23.20;96.30;;;;;;4965763;28;19910;-66
2023/09/30 11:37:02;;;;;;;;;;;23.00;96.20;;;;;;4975800;28;19945;-66
2023/09/30 11:39:28;;;;;;;;;;;22.90;96.50;;;;;;4976074;28;19906;-66
2023/09/30 11:41:56;;;;;;;;;;;22.70;96.10;;;;;;4975534;28;19917;-66
2023/09/30 11:44:23;;;;;;;;;;;22.40;96.30;;;;;;4975694;28;19910;-65
2023/09/30 11:46:55;;;;;;;;;;;22.40;96.30;;;;;;4975662;28;20365;-66
2023/09/30 11:49:31;;;;;;;;;;;22.40;96.00;;;;;;4974537;28;19958;-66
2023/09/30 11:52:00;;;;;;;;;;;22.20;96.30;;;;;;4975540;28;19917;-66
2023/09/30 11:54:33;;;;;;;;;;;22.40;97.10;;;;;;4975595;28;19913;-65
2023/09/30 11:57:02;;;;;;;;;;;22.40;97.10;;;;;;4975633;28;19932;-65
2023/09/30 11:59:29;;;;;;;;;;;22.60;96.40;;;;;;4974448;28;20279;-65
2023/09/30 12:01:54;;;;;;;;;;;22.50;95.70;;;;;;4964668;28;19930;-65
2023/09/30 12:04:20;;;;;;;;;;;22.50;96.00;;;;;;4956084;28;19914;-65
2023/09/30 12:06:46;;;;;;;;;;;22.60;95.70;;;;;;4967135;28;19910;-66
2023/09/30 12:09:14;;;;;;;;;;;22.50;95.30;;;;;;4973766;28;19932;-66
2023/09/30 12:11:43;;;;;;;;;;;22.50;96.10;;;;;;4975169;28;19941;-66
2023/09/30 12:14:09;;;;;;;;;;;22.50;95.90;;;;;;4975214;28;19921;-66
2023/09/30 12:16:35;;;;;;;;;;;22.50;96.10;;;;;;4975211;28;19910;-68
2023/09/30 12:19:00;;;;;;;;;;;22.50;96.00;;;;;;4974932;28;19914;-65
2023/09/30 12:21:26;;;;;;;;;;;22.60;96.60;;;;;;4975056;28;20012;-66
2023/09/30 12:23:51;;;;;;;;;;;22.60;95.60;;;;;;4975052;28;19906;-66
2023/09/30 12:26:19;;;;;;;;;;;22.70;95.90;;;;;;4975179;28;19906;-66
2023/09/30 12:28:45;;;;;;;;;;;22.80;95.30;;;;;;4974210;28;19910;-66
2023/09/30 12:31:11;;;;;;;;;;;22.90;94.90;;;;;;4974662;28;19906;-66
2023/09/30 12:33:36;;;;;;;;;;;23.00;94.30;;;;;;4974639;28;20381;-66
2023/09/30 12:36:02;;;;;;;;;;;23.10;94.40;;;;;;4975189;28;19912;-66
2023/09/30 12:38:28;;;;;;;;;;;23.20;94.00;;;;;;4974391;28;20388;-65
2023/09/30 12:40:54;;;;;;;;;;;23.10;94.10;;;;;;4974515;28;19910;-67
2023/09/30 12:43:20;;;;;;;;;;;22.80;94.40;;;;;;4974659;28;19910;-66
2023/09/30 12:45:46;;;;;;;;;;;22.80;94.70;;;;;;4973666;28;19906;-66
2023/09/30 12:48:11;;;;;;;;;;;22.80;93.80;;;;;;4974061;28;19996;-66
2023/09/30 12:50:37;;;;;;;;;;;22.90;93.70;;;;;;4974727;28;19950;-66
2023/09/30 12:53:02;;;;;;;;;;;23.00;93.50;;;;;;4974735;28;19906;-67
2023/09/30 12:55:28;;;;;;;;;;;23.10;93.40;;;;;;4974860;28;20364;-66
2023/09/30 12:57:53;;;;;;;;;;;23.10;93.40;;;;;;4974397;28;19934;-66
2023/09/30 13:00:19;;;;;;;;;;;23.00;93.80;;;;;;4972867;28;19914;-66
2023/09/30 13:02:46;;;;;;;;;;;22.80;93.90;;;;;;4967542;28;19921;-66
2023/09/30 13:05:11;;;;;;;;;;;22.80;93.90;;;;;;4974658;28;19906;-66
2023/09/30 13:07:37;;;;;;;;;;;22.70;93.90;;;;;;4974996;28;19914;-66
2023/09/30 13:10:05;;;;;;;;;;;22.70;93.80;;;;;;4974719;28;19964;-67
2023/09/30 13:12:32;;;;;;;;;;;22.70;93.60;;;;;;4966037;28;19914;-66
2023/09/30 13:14:58;;;;;;;;;;;22.80;93.30;;;;;;4965443;28;19918;-65
2023/09/30 13:17:24;;;;;;;;;;;22.80;93.30;;;;;;4966141;28;19907;-67
2023/09/30 13:19:50;;;;;;;;;;;22.80;93.40;;;;;;4965713;28;19919;-65
2023/09/30 13:22:16;;;;;;;;;;;22.70;93.30;;;;;;4972293;28;20364;-66
2023/09/30 13:24:42;;;;;;;;;;;22.70;93.30;;;;;;4965589;28;19906;-66
2023/09/30 13:27:08;;;;;;;;;;;22.90;93.20;;;;;;4965380;28;19906;-66
2023/09/30 13:29:33;;;;;;;;;;;22.90;93.10;;;;;;4954920;29;19961;-66
2023/09/30 13:31:59;;;;;;;;;;;22.80;92.50;;;;;;4956323;28;19906;-66
2023/09/30 13:34:24;;;;;;;;;;;22.50;93.00;;;;;;4954970;29;19917;-66
2023/09/30 13:36:50;;;;;;;;;;;22.60;93.50;;;;;;4954008;29;20008;-65
2023/09/30 13:39:17;;;;;;;;;;;22.60;93.40;;;;;;4963923;28;19910;-65
2023/09/30 13:41:46;;;;;;;;;;;22.70;93.30;;;;;;4977592;28;20345;-65
2023/09/30 13:44:12;;;;;;;;;;;22.70;93.60;;;;;;4977086;28;19906;-68
2023/09/30 13:46:38;;;;;;;;;;;22.70;93.60;;;;;;4969339;28;19917;-68
2023/09/30 13:49:03;;;;;;;;;;;22.60;93.80;;;;;;4972430;28;19913;-69
2023/09/30 13:51:29;;;;;;;;;;;22.60;93.50;;;;;;4977815;28;20007;-69
2023/09/30 13:53:55;;;;;;;;;;;22.70;93.90;;;;;;4977494;28;19906;-69
2023/09/30 13:56:20;;;;;;;;;;;22.80;93.60;;;;;;4976234;28;19921;-67
2023/09/30 13:58:45;;;;;;;;;;;22.90;93.00;;;;;;4977406;28;19914;-66
2023/09/30 14:01:14;;;;;;;;;;;22.80;93.30;;;;;;4975824;28;20420;-66
2023/09/30 14:03:40;;;;;;;;;;;22.70;93.00;;;;;;4974335;28;19910;-68
2023/09/30 14:06:10;;;;;;;;;;;22.60;93.30;;;;;;4977175;28;19910;-70
2023/09/30 14:08:36;;;;;;;;;;;22.60;93.20;;;;;;4977748;28;19912;-69
2023/09/30 14:11:01;;;;;;;;;;;22.60;93.30;;;;;;4978181;28;19996;-69
2023/09/30 14:13:27;;;;;;;;;;;22.60;93.70;;;;;;4976526;28;19910;-69
2023/09/30 14:15:52;;;;;;;;;;;22.40;93.60;;;;;;4976716;28;19906;-68
2023/09/30 14:18:18;;;;;;;;;;;22.40;93.60;;;;;;4977740;28;19910;-68
2023/09/30 14:20:43;;;;;;;;;;;22.50;93.20;;;;;;4977680;28;19934;-68
2023/09/30 14:23:09;;;;;;;;;;;22.50;92.90;;;;;;4975462;28;20369;-68
2023/09/30 14:25:35;;;;;;;;;;;22.60;93.20;;;;;;4966283;28;19917;-66
2023/09/30 14:28:01;;;;;;;;;;;22.50;92.90;;;;;;4969208;28;19914;-68
2023/09/30 14:30:26;;;;;;;;;;;22.40;93.00;;;;;;4959025;28;19915;-68
2023/09/30 14:32:52;;;;;;;;;;;22.50;93.20;;;;;;4964003;28;20280;-67
2023/09/30 14:35:18;;;;;;;;;;;22.50;93.00;;;;;;4973772;28;19910;-68
2023/09/30 14:37:44;;;;;;;;;;;22.30;93.20;;;;;;4966010;28;19910;-67
2023/09/30 14:40:10;;;;;;;;;;;22.30;93.30;;;;;;4963016;28;19906;-67
2023/09/30 14:42:36;;;;;;;;;;;22.40;93.80;;;;;;4972566;28;19920;-68
2023/09/30 14:45:02;;;;;;;;;;;22.50;93.80;;;;;;4964203;28;19956;-67
2023/09/30 14:47:27;;;;;;;;;;;22.50;93.20;;;;;;4974904;28;19906;-68
2023/09/30 14:49:53;;;;;;;;;;;22.30;92.90;;;;;;4974040;28;20014;-68
2023/09/30 14:52:19;;;;;;;;;;;22.10;93.10;;;;;;4973961;28;20354;-68
2023/09/30 14:54:44;;;;;;;;;;;22.10;93.40;;;;;;4956967;28;20369;-68
2023/09/30 14:57:11;;;;;;;;;;;22.10;93.50;;;;;;4969394;28;19921;-68
2023/09/30 14:59:36;;;;;;;;;;;22.10;93.50;;;;;;4975332;28;19913;-71
2023/09/30 15:02:03;;;;;;;;;;;22.20;93.60;;;;;;4964518;28;19914;-66
2023/09/30 15:04:28;;;;;;;;;;;22.10;93.70;;;;;;4956747;28;19906;-66
2023/09/30 15:06:54;;;;;;;;;;;22.20;93.80;;;;;;4962641;28;19910;-65
2023/09/30 15:09:20;;;;;;;;;;;22.20;93.90;;;;;;4976371;28;19910;-67
2023/09/30 15:11:45;;;;;;;;;;;22.20;94.10;;;;;;4976889;28;19928;-66
2023/09/30 15:14:11;;;;;;;;;;;22.10;93.60;;;;;;4975968;28;19957;-65
2023/09/30 15:16:36;;;;;;;;;;;22.10;94.10;;;;;;4964855;28;19961;-67
2023/09/30 15:19:02;;;;;;;;;;;21.90;94.30;;;;;;4968608;28;19926;-66
2023/09/30 15:21:28;;;;;;;;;;;21.80;94.50;;;;;;4975078;28;19965;-65
2023/09/30 15:23:53;;;;;;;;;;;21.80;94.60;;;;;;4975609;28;19906;-65
2023/09/30 15:26:19;;;;;;;;;;;21.80;94.60;;;;;;4975883;28;20000;-65
2023/09/30 15:28:45;;;;;;;;;;;21.80;94.70;;;;;;4967593;28;19911;-66
2023/09/30 15:31:10;;;;;;;;;;;21.80;94.40;;;;;;4971129;28;19914;-65
2023/09/30 15:33:36;;;;;;;;;;;21.80;94.60;;;;;;4975239;28;20018;-65
2023/09/30 15:36:12;;;;;;;;;;;21.90;94.80;;;;;;4975698;28;20388;-65
2023/09/30 15:38:37;;;;;;;;;;;21.80;94.80;;;;;;4975377;28;20427;-66
2023/09/30 15:41:03;;;;;;;;;;;21.70;95.00;;;;;;4975528;28;19906;-66
2023/09/30 15:43:29;;;;;;;;;;;21.70;94.70;;;;;;4975518;28;20292;-67
2023/09/30 15:45:55;;;;;;;;;;;21.70;95.10;;;;;;4974344;28;19906;-67
2023/09/30 15:48:20;;;;;;;;;;;21.80;94.90;;;;;;4967616;28;19909;-65
2023/09/30 15:50:45;;;;;;;;;;;21.70;95.20;;;;;;4963866;28;19910;-66
2023/09/30 15:53:11;;;;;;;;;;;21.80;95.20;;;;;;4968896;28;20417;-65
2023/09/30 15:55:37;;;;;;;;;;;21.70;94.90;;;;;;4964159;28;19914;-67
2023/09/30 15:58:04;;;;;;;;;;;21.60;95.10;;;;;;4966179;28;20000;-66
2023/09/30 16:00:29;;;;;;;;;;;21.60;95.30;;;;;;4970722;28;19936;-66
2023/09/30 16:02:55;;;;;;;;;;;21.60;95.30;;;;;;4958359;28;20400;-65
2023/09/30 16:05:20;;;;;;;;;;;21.50;95.20;;;;;;4975253;28;19932;-65
2023/09/30 16:07:45;;;;;;;;;;;21.40;95.40;;;;;;4975358;28;19912;-67
2023/09/30 16:10:11;;;;;;;;;;;21.40;95.60;;;;;;4974911;28;19906;-65
2023/09/30 16:12:38;;;;;;;;;;;21.30;95.60;;;;;;4975174;28;19906;-66
2023/09/30 16:15:05;;;;;;;;;;;21.40;95.70;;;;;;4975542;28;19945;-66
2023/09/30 16:17:31;;;;;;;;;;;21.40;95.80;;;;;;4974197;28;19916;-66
2023/09/30 16:19:57;;;;;;;;;;;21.30;95.90;;;;;;4974940;28;19910;-65
2023/09/30 16:22:22;;;;;;;;;;;21.40;95.70;;;;;;4974427;28;19914;-65
2023/09/30 16:24:48;;;;;;;;;;;21.30;96.00;;;;;;4974662;28;20000;-65
2023/09/30 16:27:13;;;;;;;;;;;21.20;95.70;;;;;;4974611;28;19992;-67
2023/09/30 16:29:39;;;;;;;;;;;21.10;96.00;;;;;;4973178;28;19950;-65
2023/09/30 16:32:05;;;;;;;;;;;21.10;96.20;;;;;;4973102;28;20600;-64
2023/09/30 16:34:30;;;;;;;;;;;21.00;96.40;;;;;;4973307;28;20580;-64
2023/09/30 16:36:56;;;;;;;;;;;21.00;96.50;;;;;;4974849;28;19910;-65
2023/09/30 16:39:21;;;;;;;;;;;20.90;96.50;;;;;;4975060;28;20349;-65
2023/09/30 16:41:47;;;;;;;;;;;20.90;96.60;;;;;;4974006;28;20341;-66
2023/09/30 16:44:12;;;;;;;;;;;20.80;96.60;;;;;;4975044;28;19910;-66
2023/09/30 16:46:38;;;;;;;;;;;20.80;96.80;;;;;;4975253;28;19906;-66
2023/09/30 16:49:03;;;;;;;;;;;20.70;97.00;;;;;;4973164;28;19913;-66
2023/09/30 16:51:29;;;;;;;;;;;20.60;96.90;;;;;;4974634;28;20009;-65
2023/09/30 16:53:54;;;;;;;;;;;20.60;96.90;;;;;;4974133;28;20005;-66
2023/09/30 16:56:20;;;;;;;;;;;20.60;97.10;;;;;;4974239;28;20296;-66
2023/09/30 16:58:46;;;;;;;;;;;20.50;97.10;;;;;;4974589;28;19952;-66
2023/09/30 17:01:12;;;;;;;;;;;20.50;97.30;;;;;;4974389;28;20037;-66
2023/09/30 17:03:38;;;;;;;;;;;20.50;97.40;;;;;;4974243;28;19933;-65
2023/09/30 17:06:04;;;;;;;;;;;20.40;97.50;;;;;;4974769;28;19927;-66
2023/09/30 17:08:29;;;;;;;;;;;20.30;97.70;;;;;;4974385;28;19906;-65
2023/09/30 17:10:55;;;;;;;;;;;20.30;98.00;;;;;;4974927;28;19938;-66
2023/09/30 17:13:21;;;;;;;;;;;20.30;97.80;;;;;;4974592;28;19909;-67
2023/09/30 17:15:46;;;;;;;;;;;20.30;97.90;;;;;;4977879;28;20005;-66
2023/09/30 17:18:12;;;;;;;;;;;20.30;97.80;;;;;;4978120;28;19906;-67
2023/09/30 17:20:41;;;;;;;;;;;20.20;97.90;;;;;;4978238;28;19906;-65
2023/09/30 17:23:10;;;;;;;;;;;20.20;98.00;;;;;;4977244;28;19914;-65
2023/09/30 17:25:35;;;;;;;;;;;20.10;98.10;;;;;;4977892;28;19910;-66
2023/09/30 17:28:01;;;;;;;;;;;20.10;98.20;;;;;;4978254;28;19997;-65
2023/09/30 17:30:26;;;;;;;;;;;20.00;98.30;;;;;;4977891;28;19906;-66
2023/09/30 17:32:52;;;;;;;;;;;20.00;98.40;;;;;;4959507;28;19906;-65
2023/09/30 17:35:17;;;;;;;;;;;19.90;98.50;;;;;;4958348;29;19914;-66
2023/09/30 17:37:43;;;;;;;;;;;19.80;98.60;;;;;;4977160;28;19910;-66
2023/09/30 17:40:09;;;;;;;;;;;19.80;98.70;;;;;;4978349;28;20316;-66
2023/09/30 17:42:34;;;;;;;;;;;19.70;98.90;;;;;;4977890;28;19910;-65
2023/09/30 17:45:00;;;;;;;;;;;19.60;99.00;;;;;;4977950;28;19960;-65
2023/09/30 17:47:26;;;;;;;;;;;19.60;99.50;;;;;;4977934;28;19910;-65
2023/09/30 17:49:51;;;;;;;;;;;19.60;99.30;;;;;;4977300;28;19916;-64
2023/09/30 17:52:17;;;;;;;;;;;19.50;99.30;;;;;;4976384;28;19964;-64
2023/09/30 17:54:42;;;;;;;;;;;19.60;99.10;;;;;;4977716;28;19910;-64
2023/09/30 17:57:08;;;;;;;;;;;19.50;99.30;;;;;;4977055;28;19910;-65
2023/09/30 17:59:34;;;;;;;;;;;19.50;99.40;;;;;;4977678;28;20402;-66
2023/09/30 18:01:59;;;;;;;;;;;19.50;99.50;;;;;;4965809;28;19914;-64
2023/09/30 18:04:25;;;;;;;;;;;19.50;99.60;;;;;;4958138;28;19906;-65
2023/09/30 18:06:51;;;;;;;;;;;19.50;99.70;;;;;;4958174;29;19918;-64
2023/09/30 18:09:16;;;;;;;;;;;19.40;99.90;;;;;;4972385;28;20010;-65
2023/09/30 18:11:42;;;;;;;;;;;19.40;99.90;;;;;;4977300;28;20389;-65
2023/09/30 18:14:12;;;;;;;;;;;19.30;99.90;;;;;;4977327;28;19937;-64